KA0QOK Weather Reports


Display with metric or nautical units.
time (UTC)temp
F
wind
direction
speed
MPH
gust
MPH
rain 1hr
in
rain 24hr
in
rain mn
in
humidity
%
barometer
mb
20240714110042 64 176 0.0 0.0 0.00 0.19 0.18 81 1012.8
20240714104534 64 176 0.0 0.0 0.00 0.19 0.18 81 1012.9
20240714103033 64 176 0.0 0.0 0.00 0.19 0.18 81 1013.1
20240714101533 64 176 0.0 0.0 0.00 0.19 0.18 82 1013.1
20240714100031 64 176 0.0 0.0 0.00 0.19 0.18 82 1013.0
20240714094534 64 176 0.0 0.0 0.00 0.19 0.18 82 1012.9
20240714093030 64 176 0.0 0.0 0.00 0.19 0.18 83 1012.7
20240714091531 64 176 0.0 0.0 0.00 0.19 0.18 83 1012.7
20240714090028 64 176 0.0 0.0 0.00 0.19 0.18 83 1012.1
20240714084525 64 176 0.0 0.0 0.00 0.19 0.18 83 1011.7
20240714083038 65 176 0.0 0.0 0.00 0.19 0.18 83 1011.3
20240714081522 65 176 0.0 0.0 0.00 0.19 0.18 84 1010.8
20240714080019 65 176 0.0 0.0 0.00 0.19 0.18 85 1010.8
20240714074518 65 176 0.0 0.0 0.00 0.19 0.18 85 1010.4
20240714073019 65 176 0.0 0.0 0.00 0.19 0.18 86 1010.8
20240714071515 65 176 0.0 0.0 0.00 0.19 0.18 85 1010.2
20240714070051 66 176 0.0 4.0 0.08 0.19 0.18 84 1009.6
20240714064544 65 28 1.0 5.0 0.18 0.19 0.18 85 1009.6
20240714063040 66 25 4.0 19.0 0.18 0.19 0.18 84 1010.9
20240714061536 67 50 10.0 32.0 0.18 0.19 0.18 85 1014.0
20240714060039 71 29 9.0 45.0 0.08 0.09 0.08 82 1016.5
20240714054528 75 35 0.0 3.0 0.00 0.01 0.00 84 1013.2
20240714053035 75 35 1.0 8.0 0.00 0.01 0.00 84 1012.6
20240714051522 76 177 0.0 1.0 0.00 0.01 0.00 84 1012.0
20240714050026 76 177 0.0 0.0 0.00 0.01 0.00 84 1012.1
20240714044517 76 177 0.0 0.0 0.00 0.01 0.01 84 1012.6
20240714043016 76 177 0.0 0.0 0.00 0.01 0.01 83 1012.7
20240714041514 76 176 0.0 0.0 0.00 0.01 0.01 83 1012.9
20240714040025 76 176 0.0 0.0 0.00 0.01 0.01 84 1012.7
20240714034521 77 176 0.0 0.0 0.00 0.01 0.01 84 1013.0
20240714033011 77 176 0.0 0.0 0.00 0.01 0.01 84 1012.8
20240714031518 77 176 0.0 0.0 0.00 0.01 0.01 83 1013.0
20240714030010 78 176 0.0 0.0 0.00 0.01 0.01 83 1013.1
20240714024510 78 176 0.0 0.0 0.00 0.01 0.01 83 1013.2
20240714023007 79 176 0.0 0.0 0.00 0.01 0.01 82 1012.7
20240714021507 80 176 0.0 0.0 0.00 0.01 0.01 81 1012.5
20240714020017 80 176 0.0 0.0 0.00 0.01 0.01 80 1012.0
20240714014505 81 176 0.0 0.0 0.00 0.01 0.01 80 1011.9
20240714013001 81 176 0.0 0.0 0.00 0.01 0.01 79 1012.1
20240714011500 82 176 0.0 3.0 0.00 0.01 0.01 78 1012.3
20240714010102 82 176 0.0 3.0 0.00 0.01 0.01 76 1012.6
20240714004606 82 176 0.0 7.0 0.00 0.01 0.01 74 1012.6
20240714003104 83 175 0.0 2.0 0.00 0.01 0.01 70 1012.5
20240714001556 83 175 0.0 8.0 0.00 0.01 0.01 67 1012.5
20240714000055 84 178 1.0 8.0 0.00 0.01 0.01 65 1012.5
20240713234556 84 187 0.0 6.0 0.00 0.01 0.01 67 1012.5
20240713233055 85 184 0.0 4.0 0.00 0.01 0.01 67 1012.7
20240713231551 85 184 0.0 2.0 0.00 0.01 0.01 67 1012.9
20240713230055 85 184 0.0 3.0 0.00 0.01 0.01 67 1013.1
20240713224548 85 184 0.0 8.0 0.00 0.01 0.01 65 1013.2
20240713223048 85 199 0.0 4.0 0.00 0.01 0.01 68 1013.1
20240713221542 84 199 0.0 5.0 0.00 0.01 0.01 67 1012.9
20240713220038 83 199 0.0 6.0 0.00 0.01 0.01 71 1013.4
20240713214535 82 199 0.0 4.0 0.00 0.01 0.01 76 1013.8
20240713213033 80 200 0.0 5.0 0.00 0.01 0.01 80 1014.0
20240713211525 78 198 0.0 0.0 0.00 0.01 0.01 80 1014.2
20240713210024 78 198 0.0 6.0 0.00 0.01 0.01 80 1014.7
20240713204524 78 193 0.0 4.0 0.00 0.01 0.01 80 1015.2
20240713203020 78 192 0.0 2.0 0.00 0.01 0.01 79 1015.2
20240713201517 77 192 0.0 2.0 0.00 0.01 0.01 77 1015.1
20240713200025 77 192 0.0 2.0 0.00 0.01 0.01 78 1015.4
20240713194513 76 192 0.0 3.0 0.00 0.01 0.01 79 1015.1
20240713193013 76 192 0.0 18.0 0.00 0.01 0.01 81 1015.4
20240713191543 76 166 3.0 15.0 0.00 0.01 0.01 81 1015.6
20240713190048 74 165 2.0 9.0 0.00 0.01 0.01 83 1015.3
20240713184513 73 168 0.0 0.0 0.00 0.01 0.01 85 1015.1
20240713183010 73 168 0.0 1.0 0.00 0.01 0.01 85 1015.5
20240713181509 73 211 0.0 7.0 0.00 0.01 0.01 83 1016.7
20240713180008 74 162 0.0 5.0 0.00 0.01 0.01 83 1016.4
20240713174513 73 166 0.0 0.0 0.00 0.01 0.01 83 1015.2
20240713173012 73 166 0.0 0.0 0.00 0.01 0.01 83 1015.3
20240713171505 74 165 3.0 11.0 0.00 0.01 0.01 81 1016.1
20240713170004 74 174 1.0 9.0 0.00 0.01 0.01 81 1016.3
20240713164504 74 168 0.0 0.0 0.00 0.01 0.01 83 1015.5
20240713163004 73 168 0.0 0.0 0.00 0.01 0.01 84 1015.3
20240713161547 73 167 0.0 10.0 0.00 0.01 0.01 82 1014.6
20240713160031 73 176 0.0 8.0 0.00 0.01 0.01 83 1015.2
20240713154532 72 169 0.0 0.0 0.00 0.01 0.01 83 1015.5
20240713153055 71 169 0.0 0.0 0.00 0.01 0.01 84 1016.1
20240713151528 71 169 0.0 0.0 0.00 0.01 0.01 84 1016.0
20240713150030 71 168 0.0 0.0 0.00 0.01 0.01 85 1015.5
20240713144557 70 168 0.0 0.0 0.00 0.01 0.01 85 1015.8
20240713143103 70 168 0.0 0.0 0.00 0.01 0.01 85 1015.7
20240713141553 69 168 0.0 0.0 0.01 0.01 0.01 85 1015.7
20240713140053 69 168 0.0 0.0 0.01 0.01 0.01 85 1015.2
20240713134550 69 201 0.0 5.0 0.01 0.01 0.01 83 1016.0
20240713133050 71 186 3.0 12.0 0.01 0.01 0.01 80 1017.5
20240713131516 73 246 6.0 27.0 0.00 0.00 0.00 77 1018.7
20240713130010 74 155 0.0 7.0 0.00 0.00 0.00 83 1017.5
20240713124508 74 173 0.0 8.0 0.00 0.00 0.00 82 1016.9
20240713123012 74 171 0.0 12.0 0.00 0.00 0.00 82 1017.2
20240713121508 74 157 0.0 6.0 0.00 0.00 0.00 82 1017.2
20240713120019 74 159 1.0 10.0 0.00 0.00 0.00 82 1016.8
20240713114605 73 128 0.0 3.0 0.00 0.00 0.00 82 1016.9
20240713113039 73 127 0.0 0.0 0.00 0.00 0.00 83 1016.6
20240713111535 72 128 0.0 0.0 0.00 0.00 0.00 82 1016.3